createdAt,value
2022-12-12T00:01:22.602Z,-2.19
2022-12-12T00:03:53.363Z,-2.23
2022-12-12T00:06:22.324Z,-2.22
2022-12-12T00:08:51.117Z,-2.23
2022-12-12T00:11:19.440Z,-2.47
2022-12-12T00:13:48.267Z,-2.60
2022-12-12T00:16:16.964Z,-2.60
2022-12-12T00:18:45.534Z,-2.68
2022-12-12T00:21:18.221Z,-2.66
2022-12-12T00:23:47.142Z,-2.70
2022-12-12T00:26:19.702Z,-2.76
2022-12-12T00:28:48.365Z,-2.64
2022-12-12T00:31:17.605Z,-2.64
2022-12-12T00:33:48.267Z,-2.69
2022-12-12T00:36:18.884Z,-2.72
2022-12-12T00:38:47.162Z,-2.86
2022-12-12T00:41:15.670Z,-2.86
2022-12-12T00:43:44.385Z,-2.85
2022-12-12T00:46:15.152Z,-2.86
2022-12-12T00:48:43.805Z,-2.88
2022-12-12T00:51:14.876Z,-2.86
2022-12-12T00:53:44.842Z,-2.85
2022-12-12T00:56:13.393Z,-2.92
2022-12-12T00:58:41.712Z,-2.82
2022-12-12T01:01:11.275Z,-2.83
2022-12-12T01:03:42.126Z,-2.84
2022-12-12T01:06:11.647Z,-2.82
2022-12-12T01:08:41.130Z,-2.90
2022-12-12T01:11:12.762Z,-2.82
2022-12-12T01:13:42.138Z,-2.81
2022-12-12T01:16:11.369Z,-2.86
2022-12-12T01:18:40.804Z,-2.82
2022-12-12T01:21:10.915Z,-2.89
2022-12-12T01:23:39.892Z,-2.95
2022-12-12T01:26:13.636Z,-3.03
2022-12-12T01:28:42.848Z,-3.04
2022-12-12T01:31:11.490Z,-3.03
2022-12-12T01:33:39.855Z,-2.96
2022-12-12T01:36:09.158Z,-2.89
2022-12-12T01:38:40.980Z,-2.93
2022-12-12T01:41:09.153Z,-2.89
2022-12-12T01:43:40.213Z,-2.92
2022-12-12T01:46:33.360Z,-2.92
2022-12-12T01:49:11.098Z,-2.93
2022-12-12T01:51:41.421Z,-2.83
2022-12-12T01:54:12.491Z,-2.75
2022-12-12T01:56:43.481Z,-2.74
2022-12-12T01:59:15.968Z,-2.78
2022-12-12T02:01:44.913Z,-2.82
2022-12-12T02:04:15.536Z,-2.88
2022-12-12T02:06:44.997Z,-2.78
2022-12-12T02:09:17.157Z,-2.71
2022-12-12T02:11:48.161Z,-2.68
2022-12-12T02:14:21.343Z,-2.67
2022-12-12T02:17:03.071Z,-2.63
2022-12-12T02:20:02.437Z,-2.63
2022-12-12T02:22:43.783Z,-2.50
2022-12-12T02:25:33.968Z,-2.63
2022-12-12T02:28:23.378Z,-2.72
2022-12-12T02:31:12.317Z,-2.74
2022-12-12T02:33:44.900Z,-2.55
2022-12-12T02:36:19.768Z,-2.67
2022-12-12T02:38:56.195Z,-2.56
2022-12-12T02:41:32.345Z,-2.60
2022-12-12T02:44:13.444Z,-2.56
2022-12-12T02:46:47.585Z,-2.50
2022-12-12T02:49:23.005Z,-2.47
2022-12-12T02:51:52.720Z,-2.49
2022-12-12T02:54:23.081Z,-2.62
2022-12-12T02:56:54.809Z,-2.55
2022-12-12T02:59:27.293Z,-2.53
2022-12-12T03:02:23.575Z,-2.58
2022-12-12T03:05:29.187Z,-2.50
2022-12-12T03:08:09.686Z,-2.64
2022-12-12T03:10:50.977Z,-2.67
2022-12-12T03:13:30.639Z,-2.62
2022-12-12T03:16:15.231Z,-2.56
2022-12-12T03:18:57.441Z,-2.67
2022-12-12T03:21:30.939Z,-2.59
2022-12-12T03:24:03.475Z,-2.54
2022-12-12T03:26:37.462Z,-2.59
2022-12-12T03:29:12.657Z,-2.65
2022-12-12T03:31:46.613Z,-2.73
2022-12-12T03:34:21.013Z,-2.67
2022-12-12T03:36:54.871Z,-2.64
2022-12-12T03:39:31.512Z,-2.58
2022-12-12T03:42:07.481Z,-2.77
2022-12-12T03:44:42.549Z,-2.77
2022-12-12T03:47:14.480Z,-2.97
2022-12-12T03:49:50.920Z,-2.79
2022-12-12T03:52:24.041Z,-2.81
2022-12-12T03:54:58.607Z,-2.59
2022-12-12T03:57:33.009Z,-2.57
2022-12-12T04:00:09.285Z,-2.62
2022-12-12T04:02:43.434Z,-2.58
2022-12-12T04:05:19.499Z,-2.48
2022-12-12T04:07:52.442Z,-2.51
2022-12-12T04:10:41.280Z,-2.43
2022-12-12T04:13:14.730Z,-2.46
2022-12-12T04:16:08.326Z,-2.78
2022-12-12T04:18:50.511Z,-2.72
2022-12-12T04:21:47.057Z,-2.67
2022-12-12T04:24:24.665Z,-2.65
2022-12-12T04:26:59.155Z,-2.73
2022-12-12T04:29:37.935Z,-2.74
2022-12-12T04:32:16.266Z,-2.58
2022-12-12T04:34:50.862Z,-2.58
2022-12-12T04:37:25.215Z,-2.39
2022-12-12T04:39:57.384Z,-2.42
2022-12-12T04:42:32.620Z,-2.33
2022-12-12T04:45:05.033Z,-2.39
2022-12-12T04:47:37.745Z,-2.34
2022-12-12T04:50:09.633Z,-2.37
2022-12-12T04:52:41.714Z,-2.37
2022-12-12T04:55:14.961Z,-2.45
2022-12-12T04:57:48.849Z,-2.51
2022-12-12T05:00:18.257Z,-2.39
2022-12-12T05:02:53.622Z,-2.43
2022-12-12T05:05:28.433Z,-2.58
2022-12-12T05:08:02.579Z,-2.45
2022-12-12T05:10:31.470Z,-2.44
2022-12-12T05:13:01.293Z,-2.45
2022-12-12T05:15:31.141Z,-2.45
2022-12-12T05:18:03.233Z,-2.45
2022-12-12T05:20:31.619Z,-2.45
2022-12-12T05:23:01.448Z,-2.38
2022-12-12T05:25:29.795Z,-2.37
2022-12-12T05:27:58.296Z,-2.29
2022-12-12T05:30:30.029Z,-2.37
2022-12-12T05:32:58.424Z,-2.34
2022-12-12T05:35:26.857Z,-2.20
2022-12-12T05:37:55.187Z,-2.25
2022-12-12T05:40:25.141Z,-2.26
2022-12-12T05:42:53.551Z,-2.26
2022-12-12T05:45:21.960Z,-2.31
2022-12-12T05:47:50.530Z,-2.30
2022-12-12T05:50:19.590Z,-2.25
2022-12-12T05:52:47.838Z,-2.30
2022-12-12T05:55:16.619Z,-2.15
2022-12-12T05:57:46.507Z,-2.12
2022-12-12T06:00:17.812Z,-2.15
2022-12-12T06:02:46.349Z,-2.19
2022-12-12T06:05:15.342Z,-2.21
2022-12-12T06:07:43.731Z,-2.18
2022-12-12T06:10:12.247Z,-2.23
2022-12-12T06:12:40.761Z,-2.26
2022-12-12T06:15:11.600Z,-2.17
2022-12-12T06:17:40.321Z,-2.17
2022-12-12T06:20:09.640Z,-2.33
2022-12-12T06:22:38.288Z,-2.49
2022-12-12T06:25:08.166Z,-2.23
2022-12-12T06:27:37.002Z,-2.56
2022-12-12T06:30:07.234Z,-2.37
2022-12-12T06:32:40.151Z,-2.32
2022-12-12T06:35:09.087Z,-2.39
2022-12-12T06:37:37.608Z,-2.50
2022-12-12T06:40:09.701Z,-2.46
2022-12-12T06:42:40.871Z,-2.40
2022-12-12T06:45:13.232Z,-2.51
2022-12-12T06:47:43.019Z,-2.41
2022-12-12T06:50:12.068Z,-2.48
2022-12-12T06:52:40.683Z,-2.45
2022-12-12T06:55:09.836Z,-2.54
2022-12-12T06:57:40.780Z,-2.53
2022-12-12T07:00:10.794Z,-2.64
2022-12-12T07:02:39.069Z,-2.60
2022-12-12T07:05:09.253Z,-2.60
2022-12-12T07:07:37.514Z,-2.59
2022-12-12T07:10:07.714Z,-2.53
2022-12-12T07:12:36.023Z,-2.53
2022-12-12T07:15:05.743Z,-2.68
2022-12-12T07:17:34.022Z,-2.59
2022-12-12T07:20:02.336Z,-2.51
2022-12-12T07:22:32.807Z,-2.59
2022-12-12T07:25:01.105Z,-2.79
2022-12-12T07:27:29.532Z,-2.60
2022-12-12T07:29:57.951Z,-2.56
2022-12-12T07:32:26.222Z,-2.63
2022-12-12T07:34:55.020Z,-2.50
2022-12-12T07:37:23.712Z,-2.51
2022-12-12T07:39:53.472Z,-2.66
2022-12-12T07:42:21.711Z,-2.47
2022-12-12T07:44:50.295Z,-2.49
2022-12-12T07:47:18.665Z,-2.45
2022-12-12T07:49:47.409Z,-2.36
2022-12-12T07:52:16.512Z,-2.38
2022-12-12T07:54:44.889Z,-2.48
2022-12-12T07:57:14.961Z,-2.40
2022-12-12T07:59:43.316Z,-2.49
2022-12-12T08:02:12.526Z,-2.45
2022-12-12T08:04:40.916Z,-2.46
2022-12-12T08:07:09.360Z,-2.41
2022-12-12T08:09:38.178Z,-2.30
2022-12-12T08:12:09.532Z,-2.27
2022-12-12T08:14:39.398Z,-2.35
2022-12-12T08:17:07.936Z,-2.36
2022-12-12T08:19:36.187Z,-2.30
2022-12-12T08:22:04.690Z,-2.24
2022-12-12T08:24:33.130Z,-2.16
2022-12-12T08:27:01.361Z,-2.14
2022-12-12T08:29:29.991Z,-2.07
2022-12-12T08:31:59.947Z,-2.02
2022-12-12T08:34:28.224Z,-1.89
2022-12-12T08:36:56.834Z,-1.84
2022-12-12T08:39:25.104Z,-1.75
2022-12-12T08:41:53.838Z,-1.81
2022-12-12T08:44:22.758Z,-1.82
2022-12-12T08:46:51.019Z,-1.92
2022-12-12T08:49:20.880Z,-1.91
2022-12-12T08:51:50.788Z,-1.92
2022-12-12T08:54:19.296Z,-1.84
2022-12-12T08:56:47.738Z,-1.91
2022-12-12T08:59:16.435Z,-1.88
2022-12-12T09:01:45.049Z,-1.99
2022-12-12T09:04:13.378Z,-2.06
2022-12-12T09:06:43.096Z,-2.08
2022-12-12T09:09:11.356Z,-1.95
2022-12-12T09:11:39.547Z,-1.98
2022-12-12T09:14:09.980Z,-2.01
2022-12-12T09:16:38.623Z,-2.11
2022-12-12T09:19:07.082Z,-2.04
2022-12-12T09:21:35.879Z,-2.00
2022-12-12T09:24:05.823Z,-2.12
2022-12-12T09:26:34.050Z,-2.21
2022-12-12T09:29:02.755Z,-2.23
2022-12-12T09:31:31.127Z,-2.22
2022-12-12T09:33:59.414Z,-2.19
2022-12-12T09:36:27.972Z,-2.24
2022-12-12T09:38:56.237Z,-2.22
2022-12-12T09:41:28.325Z,-2.31
2022-12-12T09:44:00.772Z,-2.29
2022-12-12T09:46:34.601Z,-2.25
2022-12-12T09:49:13.462Z,-2.37
2022-12-12T09:51:43.359Z,-2.38
2022-12-12T09:54:15.324Z,-2.50
2022-12-12T09:56:56.899Z,-2.52
2022-12-12T09:59:34.410Z,-2.58
2022-12-12T10:02:07.133Z,-2.52
2022-12-12T10:04:40.770Z,-2.60
2022-12-12T10:07:18.767Z,-2.57
2022-12-12T10:09:59.291Z,-2.66
2022-12-12T10:12:30.465Z,-2.76
2022-12-12T10:15:03.034Z,-2.55
2022-12-12T10:17:35.992Z,-2.57
2022-12-12T10:20:07.756Z,-2.64
2022-12-12T10:22:42.490Z,-2.44
2022-12-12T10:25:22.221Z,-2.46
2022-12-12T10:27:55.333Z,-2.60
2022-12-12T10:30:23.889Z,-2.53
2022-12-12T10:33:10.163Z,-2.49
2022-12-12T10:35:49.065Z,-2.39
2022-12-12T10:38:31.836Z,-2.39
2022-12-12T10:41:05.915Z,-2.51
2022-12-12T10:43:45.365Z,-2.30
2022-12-12T10:46:21.048Z,-2.35
2022-12-12T10:48:50.414Z,-2.36
2022-12-12T10:51:22.505Z,-2.36
2022-12-12T10:53:51.061Z,-2.29
2022-12-12T10:56:23.402Z,-2.24
2022-12-12T10:58:58.252Z,-2.16
2022-12-12T11:02:00.371Z,-2.11
2022-12-12T11:04:17.913Z,-2.03
2022-12-12T11:06:49.638Z,-2.07
2022-12-12T11:09:21.095Z,-1.97
2022-12-12T11:12:00.216Z,-1.98
2022-12-12T11:14:37.623Z,-2.08
2022-12-12T11:17:22.260Z,-2.01
2022-12-12T11:19:50.590Z,-1.95
2022-12-12T11:22:18.827Z,-2.04
2022-12-12T11:24:50.085Z,-1.88
2022-12-12T11:27:24.350Z,-1.75
2022-12-12T11:29:57.117Z,-1.72
2022-12-12T11:32:30.543Z,-1.54
2022-12-12T11:35:02.054Z,-1.61
2022-12-12T11:37:39.019Z,-1.64
2022-12-12T11:40:21.353Z,-1.57
2022-12-12T11:42:49.693Z,-1.77
2022-12-12T11:45:24.871Z,-1.66
2022-12-12T11:47:53.366Z,-1.68
2022-12-12T11:50:23.999Z,-1.71
2022-12-12T11:52:55.578Z,-1.72
2022-12-12T11:55:33.021Z,-1.70
2022-12-12T11:58:16.205Z,-1.81
2022-12-12T12:00:55.484Z,-1.79
2022-12-12T12:03:54.056Z,-1.81
2022-12-12T12:06:38.269Z,-1.78
2022-12-12T12:09:22.537Z,-1.62
2022-12-12T12:11:58.613Z,-1.62
2022-12-12T12:14:43.092Z,-1.58
2022-12-12T12:17:23.773Z,-1.61
2022-12-12T12:20:02.131Z,-1.60
2022-12-12T12:22:45.903Z,-1.61
2022-12-12T12:25:29.608Z,-1.64
2022-12-12T12:28:08.876Z,-1.60
2022-12-12T12:30:48.760Z,-1.53
2022-12-12T12:33:41.314Z,-1.52
2022-12-12T12:36:21.079Z,-1.53
2022-12-12T12:39:06.102Z,-1.48
2022-12-12T12:41:50.790Z,-1.51
2022-12-12T12:44:31.422Z,-1.48
2022-12-12T12:47:09.889Z,-1.52
2022-12-12T12:49:46.187Z,-1.58
2022-12-12T12:52:18.538Z,-1.48
2022-12-12T12:54:49.926Z,-1.55
2022-12-12T12:57:23.214Z,-1.47
2022-12-12T12:59:54.207Z,-1.38
2022-12-12T13:02:28.192Z,-1.39
2022-12-12T13:05:08.359Z,-1.40
2022-12-12T13:07:48.003Z,-1.46
2022-12-12T13:10:22.598Z,-1.42
2022-12-12T13:12:57.442Z,-1.42
2022-12-12T13:15:32.489Z,-1.42
2022-12-12T13:18:05.050Z,-1.38
2022-12-12T13:20:39.344Z,-1.37
2022-12-12T13:23:39.220Z,-1.34
2022-12-12T13:26:14.426Z,-1.34
2022-12-12T13:28:49.098Z,-1.35
2022-12-12T13:31:42.949Z,-1.42
2022-12-12T13:34:14.680Z,-1.28
2022-12-12T13:36:48.152Z,-1.34
2022-12-12T13:39:27.938Z,-1.34
2022-12-12T13:42:00.116Z,-1.39
2022-12-12T13:44:41.352Z,-1.34
2022-12-12T13:47:29.472Z,-1.36
2022-12-12T13:50:04.174Z,-1.43
2022-12-12T13:52:35.579Z,-1.44
2022-12-12T13:55:24.396Z,-1.34
2022-12-12T13:58:17.859Z,-1.38
2022-12-12T14:00:46.799Z,-1.39
2022-12-12T14:03:31.773Z,-1.45
2022-12-12T14:06:12.088Z,-1.48
2022-12-12T14:08:51.115Z,-1.61
2022-12-12T14:11:30.059Z,-1.56
2022-12-12T14:14:19.480Z,-1.55
2022-12-12T14:16:54.778Z,-1.62
2022-12-12T14:19:31.219Z,-1.62
2022-12-12T14:21:59.749Z,-1.59
2022-12-12T14:24:48.169Z,-1.67
2022-12-12T14:27:16.906Z,-1.72
2022-12-12T14:29:46.506Z,-1.55
2022-12-12T14:32:38.236Z,-1.70
2022-12-12T14:35:24.589Z,-1.74
2022-12-12T14:38:01.422Z,-1.70
2022-12-12T14:40:33.597Z,-1.76
2022-12-12T14:43:20.815Z,-1.82
2022-12-12T14:45:58.303Z,-1.95
2022-12-12T14:48:31.590Z,-2.02
2022-12-12T14:51:09.262Z,-1.97
2022-12-12T14:53:48.721Z,-2.03
2022-12-12T14:56:21.236Z,-2.02
2022-12-12T14:58:57.826Z,-1.98
2022-12-12T15:01:32.529Z,-2.15
2022-12-12T15:04:03.494Z,-2.02
2022-12-12T15:06:37.795Z,-2.08
2022-12-12T15:09:16.837Z,-2.05
2022-12-12T15:11:47.467Z,-2.09
2022-12-12T15:14:25.729Z,-2.19
2022-12-12T15:17:02.807Z,-2.24
2022-12-12T15:19:36.786Z,-2.19
2022-12-12T15:22:10.734Z,-2.24
2022-12-12T15:24:40.703Z,-2.25
2022-12-12T15:27:19.095Z,-2.26
2022-12-12T15:29:47.518Z,-2.28
2022-12-12T15:32:20.269Z,-2.34
2022-12-12T15:34:59.892Z,-2.27
2022-12-12T15:37:31.036Z,-2.24
2022-12-12T15:40:04.193Z,-2.25
2022-12-12T15:42:34.666Z,-2.32
2022-12-12T15:45:03.812Z,-2.25
2022-12-12T15:47:32.535Z,-2.19
2022-12-12T15:50:09.692Z,-2.35
2022-12-12T15:52:38.061Z,-2.11
2022-12-12T15:55:07.113Z,-2.26
2022-12-12T15:57:47.458Z,-2.30
2022-12-12T16:00:30.661Z,-2.36
2022-12-12T16:03:05.671Z,-2.32
2022-12-12T16:05:36.017Z,-2.27
2022-12-12T16:08:32.345Z,-2.35
2022-12-12T16:11:02.490Z,-2.22
2022-12-12T16:13:39.428Z,-2.34
2022-12-12T16:16:37.646Z,-2.37
2022-12-12T16:19:08.355Z,-2.47
2022-12-12T16:21:43.891Z,-2.39
2022-12-12T16:24:14.620Z,-2.37
2022-12-12T16:26:42.889Z,-2.39
2022-12-12T16:29:12.640Z,-2.41
2022-12-12T16:31:41.140Z,-2.42
2022-12-12T16:34:11.489Z,-2.64
2022-12-12T16:36:42.198Z,-2.41
2022-12-12T16:39:11.267Z,-2.46
2022-12-12T16:41:40.883Z,-2.43
2022-12-12T16:44:09.348Z,-2.44
2022-12-12T16:46:39.215Z,-2.48
2022-12-12T16:49:15.038Z,-2.56
2022-12-12T16:51:44.044Z,-2.47
2022-12-12T16:54:17.062Z,-2.49
2022-12-12T16:56:52.652Z,-2.49
2022-12-12T16:59:20.871Z,-2.46
2022-12-12T17:01:50.705Z,-2.60
2022-12-12T17:04:23.204Z,-2.57
2022-12-12T17:06:52.339Z,-2.54
2022-12-12T17:09:23.371Z,-2.56
2022-12-12T17:11:54.060Z,-2.45
2022-12-12T17:14:25.061Z,-2.45
2022-12-12T17:16:56.271Z,-2.54
2022-12-12T17:19:25.626Z,-2.64
2022-12-12T17:21:53.799Z,-2.77
2022-12-12T17:24:22.834Z,-2.73
2022-12-12T17:26:51.013Z,-2.68
2022-12-12T17:29:19.408Z,-2.77
2022-12-12T17:31:48.150Z,-2.80
2022-12-12T17:34:18.036Z,-2.83
2022-12-12T17:36:46.407Z,-2.85
2022-12-12T17:39:15.198Z,-2.85
2022-12-12T17:41:43.431Z,-2.85
2022-12-12T17:44:11.768Z,-2.87
2022-12-12T17:46:41.745Z,-2.81
2022-12-12T17:49:10.111Z,-2.76
2022-12-12T17:51:39.934Z,-2.85
2022-12-12T17:54:08.728Z,-2.79
2022-12-12T17:56:37.191Z,-3.07
2022-12-12T17:59:08.751Z,-3.28
2022-12-12T18:01:37.495Z,-3.04
2022-12-12T18:04:06.705Z,-3.22
2022-12-12T18:06:37.674Z,-3.19
2022-12-12T18:09:07.612Z,-3.21
2022-12-12T18:11:38.082Z,-3.26
2022-12-12T18:14:09.012Z,-3.24
2022-12-12T18:16:38.093Z,-3.25
2022-12-12T18:19:06.530Z,-3.23
2022-12-12T18:24:29.411Z,-3.29
2022-12-12T18:26:59.679Z,-3.30
2022-12-12T18:29:29.792Z,-3.44
2022-12-12T18:31:58.402Z,-3.38
2022-12-12T18:34:26.764Z,-3.45
2022-12-12T18:36:55.116Z,-3.52
2022-12-12T18:39:24.995Z,-3.57
2022-12-12T18:41:53.509Z,-3.41
2022-12-12T18:44:21.911Z,-3.45
2022-12-12T18:46:52.840Z,-3.46
2022-12-12T18:49:21.349Z,-3.50
2022-12-12T18:51:49.816Z,-3.62
2022-12-12T18:54:18.754Z,-3.61
2022-12-12T18:56:49.485Z,-3.79
2022-12-12T18:59:17.790Z,-3.70
2022-12-12T19:01:48.223Z,-3.67
2022-12-12T19:04:22.866Z,-3.60
2022-12-12T19:06:54.005Z,-3.71
2022-12-12T19:09:22.926Z,-3.73
2022-12-12T19:12:00.138Z,-3.68
2022-12-12T19:17:25.619Z,-3.68
2022-12-12T19:19:55.291Z,-3.79
2022-12-12T19:25:12.226Z,-3.81
2022-12-12T19:27:42.347Z,-3.85
2022-12-12T19:30:12.432Z,-3.82
2022-12-12T19:32:41.419Z,-3.82
2022-12-12T19:35:10.378Z,-3.84
2022-12-12T19:37:38.680Z,-3.88
2022-12-12T19:40:08.226Z,-3.88
2022-12-12T19:42:37.031Z,-4.06
2022-12-12T19:45:07.994Z,-4.14
2022-12-12T19:47:37.142Z,-4.05
2022-12-12T19:50:06.122Z,-4.11
2022-12-12T19:52:34.450Z,-3.98
2022-12-12T19:55:02.824Z,-3.97
2022-12-12T19:57:31.811Z,-3.98
2022-12-12T20:00:00.088Z,-3.93
2022-12-12T20:02:30.261Z,-4.09
2022-12-12T20:04:58.647Z,-3.98
2022-12-12T20:07:27.105Z,-4.06
2022-12-12T20:09:55.480Z,-4.16
2022-12-12T20:12:23.734Z,-4.12
2022-12-12T20:14:52.041Z,-4.22
2022-12-12T20:17:20.542Z,-4.21
2022-12-12T20:19:50.186Z,-4.28
2022-12-12T20:22:18.987Z,-4.35
2022-12-12T20:24:48.265Z,-4.23
2022-12-12T20:27:17.879Z,-4.21
2022-12-12T20:29:46.321Z,-4.07
2022-12-12T20:32:15.205Z,-4.10
2022-12-12T20:34:44.289Z,-4.05
2022-12-12T20:37:19.771Z,-4.09
2022-12-12T20:39:49.248Z,-4.12
2022-12-12T20:42:18.590Z,-4.23
2022-12-12T20:44:47.745Z,-4.29
2022-12-12T20:47:17.559Z,-4.19
2022-12-12T20:49:48.738Z,-4.30
2022-12-12T20:52:20.707Z,-4.30
2022-12-12T20:54:49.906Z,-4.21
2022-12-12T20:57:19.288Z,-4.28
2022-12-12T20:59:49.772Z,-4.30
2022-12-12T21:02:18.564Z,-4.25
2022-12-12T21:04:47.186Z,-4.13
2022-12-12T21:07:15.563Z,-4.15
2022-12-12T21:09:46.014Z,-4.18
2022-12-12T21:12:15.734Z,-4.19
2022-12-12T21:14:44.419Z,-4.03
2022-12-12T21:17:17.384Z,-4.07
2022-12-12T21:19:47.524Z,-4.18
2022-12-12T21:22:16.421Z,-4.06
2022-12-12T21:24:46.615Z,-3.92
2022-12-12T21:27:14.884Z,-4.11
2022-12-12T21:29:43.156Z,-4.02
2022-12-12T21:32:11.521Z,-4.02
2022-12-12T21:34:41.554Z,-3.99
2022-12-12T21:37:09.953Z,-4.09
2022-12-12T21:39:38.670Z,-4.04
2022-12-12T21:42:08.678Z,-4.07
2022-12-12T21:44:41.258Z,-3.98
2022-12-12T21:47:13.158Z,-3.98
2022-12-12T21:49:41.372Z,-3.96
2022-12-12T21:52:12.301Z,-4.18
2022-12-12T21:54:41.188Z,-4.05
2022-12-12T21:57:10.986Z,-4.16
2022-12-12T21:59:39.370Z,-4.06
2022-12-12T22:02:08.655Z,-3.96
2022-12-12T22:04:37.123Z,-3.98
2022-12-12T22:07:05.681Z,-4.07
2022-12-12T22:09:34.301Z,-3.89
2022-12-12T22:12:03.197Z,-3.96
2022-12-12T22:14:35.716Z,-3.99
2022-12-12T22:17:05.798Z,-3.85
2022-12-12T22:19:34.208Z,-3.89
2022-12-12T22:22:02.574Z,-3.86
2022-12-12T22:24:31.181Z,-3.82
2022-12-12T22:27:00.208Z,-3.77
2022-12-12T22:29:29.637Z,-3.92
2022-12-12T22:31:59.510Z,-3.73
2022-12-12T22:34:28.747Z,-3.72
2022-12-12T22:36:57.460Z,-3.72
2022-12-12T22:39:28.283Z,-3.74
2022-12-12T22:41:57.411Z,-3.83
2022-12-12T22:44:27.310Z,-3.74
2022-12-12T22:46:56.861Z,-3.67
2022-12-12T22:49:28.127Z,-3.72
2022-12-12T22:51:58.179Z,-3.70
2022-12-12T22:54:27.090Z,-3.69
2022-12-12T22:56:55.780Z,-3.74
2022-12-12T22:59:24.367Z,-3.74
2022-12-12T23:01:52.731Z,-3.82
2022-12-12T23:04:23.365Z,-3.76
2022-12-12T23:06:53.286Z,-3.86
2022-12-12T23:09:26.301Z,-3.68
2022-12-12T23:11:55.654Z,-3.60
2022-12-12T23:14:26.411Z,-3.74
2022-12-12T23:16:57.805Z,-3.71
2022-12-12T23:19:28.976Z,-3.65
2022-12-12T23:21:58.881Z,-3.64
2022-12-12T23:24:27.527Z,-3.60
2022-12-12T23:26:55.883Z,-3.54
2022-12-12T23:29:24.316Z,-3.50
2022-12-12T23:31:52.867Z,-3.53
2022-12-12T23:34:23.494Z,-3.50
2022-12-12T23:36:52.617Z,-3.51
2022-12-12T23:39:23.520Z,-3.49
2022-12-12T23:41:52.174Z,-3.46
2022-12-12T23:44:22.271Z,-3.43
2022-12-12T23:46:52.518Z,-3.47
2022-12-12T23:49:23.778Z,-3.46
2022-12-12T23:51:53.859Z,-3.49
2022-12-12T23:54:25.062Z,-3.51
2022-12-12T23:56:53.861Z,-3.40
2022-12-12T23:59:23.314Z,-3.41
